Time;durP1;ratioP1;P1;durP2;ratioP2;P2;SDS_P1;SDS_P2;PMS_P1;PMS_P2;Temp;Humidity;BMP_temperature;BMP_pressure;BME280_temperature;BME280_humidity;BME280_pressure;Samples;Min_cycle;Max_cycle;Signal;HPM_P1;HPM_P2
2023/09/10 00:00:20;;;;;;;;;;;;;;;23.36;100.00;98102.66;5099437;28;19928;-78
2023/09/10 00:02:47;;;;;;;;;;;;;;;23.33;100.00;98102.53;5100163;28;19925;-79
2023/09/10 00:05:13;;;;;;;;;;;;;;;23.27;100.00;98101.97;5099966;28;19950;-78
2023/09/10 00:07:40;;;;;;;;;;;;;;;23.24;100.00;98099.91;5100538;28;19924;-78
2023/09/10 00:10:08;;;;;;;;;;;;;;;23.23;100.00;98105.72;5100389;28;19934;-78
2023/09/10 00:12:34;;;;;;;;;;;;;;;23.24;100.00;98099.91;5099974;28;19932;-78
2023/09/10 00:15:01;;;;;;;;;;;;;;;23.11;100.00;98099.13;5097236;28;19928;-77
2023/09/10 00:17:27;;;;;;;;;;;;;;;22.92;100.00;98095.38;5101158;28;19991;-77
2023/09/10 00:19:54;;;;;;;;;;;;;;;23.01;100.00;98098.78;5098174;28;19947;-78
2023/09/10 00:22:20;;;;;;;;;;;;;;;22.88;100.00;98105.34;5102546;28;19924;-78
2023/09/10 00:24:46;;;;;;;;;;;;;;;22.95;100.00;98100.94;5102356;28;19928;-78
2023/09/10 00:27:15;;;;;;;;;;;;;;;22.97;100.00;98098.66;5101787;28;20038;-78
2023/09/10 00:29:41;;;;;;;;;;;;;;;23.11;100.00;98103.78;5106773;28;19921;-78
2023/09/10 00:32:09;;;;;;;;;;;;;;;23.15;100.00;98107.41;5105005;28;19935;-78
2023/09/10 00:34:36;;;;;;;;;;;;;;;23.02;100.00;98111.28;5102654;28;19924;-78
2023/09/10 00:37:02;;;;;;;;;;;;;;;22.85;100.00;98108.75;5099200;28;19929;-78
2023/09/10 00:43:15;;;;;;;;;;;;;;;22.95;100.00;98106.38;5124303;27;19980;-69
2023/09/10 00:45:41;;;;;;;;;;;;;;;23.05;100.00;98108.66;5110662;28;19924;-69
2023/09/10 00:48:08;;;;;;;;;;;;;;;23.13;100.00;98104.22;5112596;28;20014;-68
2023/09/10 00:50:34;;;;;;;;;;;;;;;23.22;100.00;98104.91;5120241;28;19973;-68
2023/09/10 00:53:01;;;;;;;;;;;;;;;23.33;100.00;98111.53;5116948;28;19928;-68
2023/09/10 00:55:30;;;;;;;;;;;;;;;23.40;100.00;98105.50;5116414;28;19928;-68
2023/09/10 00:57:57;;;;;;;;;;;;;;;23.30;100.00;98101.31;5119100;28;19924;-68
2023/09/10 01:00:26;;;;;;;;;;;;;;;23.29;100.00;98110.59;5120051;28;19964;-68
2023/09/10 01:02:52;;;;;;;;;;;;;;;23.24;100.00;98102.63;5118115;28;19920;-68
2023/09/10 01:05:19;;;;;;;;;;;;;;;23.20;100.00;98103.69;5116024;22;19990;-78
2023/09/10 01:07:45;;;;;;;;;;;;;;;23.08;100.00;98104.47;5055818;28;19960;-77
2023/09/10 01:10:12;;;;;;;;;;;;;;;23.19;100.00;98108.31;5053224;28;19979;-77
2023/09/10 01:12:44;;;;;;;;;;;;;;;23.22;100.00;98099.47;5053201;28;19952;-78
2023/09/10 01:15:13;;;;;;;;;;;;;;;23.27;100.00;98101.97;5047877;28;19925;-78
2023/09/10 01:17:43;;;;;;;;;;;;;;;23.20;100.00;98107.19;5056675;28;19925;-78
2023/09/10 01:20:15;;;;;;;;;;;;;;;23.11;100.00;98109.25;5056340;28;19925;-78
2023/09/10 01:22:46;;;;;;;;;;;;;;;22.97;100.00;98095.13;5057325;28;19955;-77
2023/09/10 01:25:14;;;;;;;;;;;;;;;22.93;100.00;98097.72;5053470;28;19926;-78
2023/09/10 01:27:43;;;;;;;;;;;;;;;22.98;100.00;98104.91;5054928;28;19926;-78
2023/09/10 01:30:09;;;;;;;;;;;;;;;22.96;100.00;98097.06;5056830;28;19951;-78
2023/09/10 01:32:39;;;;;;;;;;;;;;;22.75;100.00;98101.00;5056842;28;19971;-78
2023/09/10 01:35:11;;;;;;;;;;;;;;;22.86;100.00;98096.72;5070163;28;19926;-78
2023/09/10 01:37:42;;;;;;;;;;;;;;;22.92;100.00;98103.53;5054898;28;19925;-79
2023/09/10 01:40:09;;;;;;;;;;;;;;;22.72;100.00;98102.47;5054750;28;19955;-78
2023/09/10 01:42:38;;;;;;;;;;;;;;;22.85;100.00;98111.47;5052928;28;19926;-78
2023/09/10 01:45:05;;;;;;;;;;;;;;;22.90;100.00;98108.53;5062769;28;20282;-79
2023/09/10 01:47:32;;;;;;;;;;;;;;;23.06;100.00;98112.16;5057283;28;19933;-79
2023/09/10 01:49:59;;;;;;;;;;;;;;;23.09;100.00;98116.94;5055872;28;20577;-78
2023/09/10 01:52:25;;;;;;;;;;;;;;;23.16;100.00;98110.94;5055329;28;19925;-78
2023/09/10 01:54:51;;;;;;;;;;;;;;;23.18;100.00;98108.69;5044460;28;19925;-79
2023/09/10 01:57:18;;;;;;;;;;;;;;;23.19;100.00;98115.69;5044215;28;19929;-79
2023/09/10 01:59:45;;;;;;;;;;;;;;;23.11;100.00;98112.75;5042183;28;19921;-80
2023/09/10 02:02:12;;;;;;;;;;;;;;;22.93;100.00;98107.88;5039447;28;19977;-79
2023/09/10 02:04:38;;;;;;;;;;;;;;;22.82;100.00;98112.94;5039314;28;20656;-79
2023/09/10 02:07:04;;;;;;;;;;;;;;;22.81;100.00;98105.13;5033442;28;19925;-78
2023/09/10 02:09:31;;;;;;;;;;;;;;;22.89;100.00;98107.75;5034708;28;19913;-78
2023/09/10 02:11:57;;;;;;;;;;;;;;;22.96;100.00;98112.63;5037075;28;19929;-78
2023/09/10 02:14:24;;;;;;;;;;;;;;;22.72;100.00;98104.38;5038748;28;19926;-78
2023/09/10 02:16:52;;;;;;;;;;;;;;;22.54;100.00;98112.72;5036611;28;19972;-79
2023/09/10 02:19:18;;;;;;;;;;;;;;;22.37;100.00;98106.66;5055340;28;19926;-78
2023/09/10 02:21:44;;;;;;;;;;;;;;;22.26;100.00;98111.72;5040678;28;19968;-78
2023/09/10 02:24:11;;;;;;;;;;;;;;;22.52;100.00;98120.44;5043766;28;19944;-78
2023/09/10 02:26:37;;;;;;;;;;;;;;;22.57;100.00;98113.97;5043203;28;20437;-78
2023/09/10 02:29:03;;;;;;;;;;;;;;;22.62;100.00;98112.97;5038769;28;19926;-78
2023/09/10 02:31:30;;;;;;;;;;;;;;;22.38;100.00;98109.03;5038609;28;19925;-78
2023/09/10 02:34:00;;;;;;;;;;;;;;;22.45;100.00;98117.47;5042146;28;19992;-78
2023/09/10 02:36:27;;;;;;;;;;;;;;;22.34;100.00;98108.13;5042076;28;19937;-78
2023/09/10 02:38:53;;;;;;;;;;;;;;;22.42;100.00;98115.41;5039781;28;20034;-78
2023/09/10 02:41:20;;;;;;;;;;;;;;;22.48;100.00;98119.50;5038285;28;19933;-78
2023/09/10 02:43:46;;;;;;;;;;;;;;;22.58;100.00;98123.75;5039281;28;19925;-78
2023/09/10 02:46:12;;;;;;;;;;;;;;;22.52;100.00;98125.09;5043143;28;19926;-77
2023/09/10 02:48:39;;;;;;;;;;;;;;;22.51;100.00;98123.47;5039432;28;19952;-78
2023/09/10 02:51:06;;;;;;;;;;;;;;;22.35;100.00;98119.78;5037921;28;19952;-78
2023/09/10 02:53:33;;;;;;;;;;;;;;;22.51;100.00;98121.56;5038035;28;19926;-78
2023/09/10 02:55:59;;;;;;;;;;;;;;;22.60;100.00;98116.03;5041792;28;19933;-79
2023/09/10 02:58:26;;;;;;;;;;;;;;;22.65;100.00;98121.31;5041368;28;19937;-78
2023/09/10 03:00:52;;;;;;;;;;;;;;;22.73;100.00;98123.13;5039470;28;20332;-78
2023/09/10 03:03:19;;;;;;;;;;;;;;;22.83;100.00;98124.63;5037728;28;19929;-78
2023/09/10 03:05:46;;;;;;;;;;;;;;;22.89;100.00;98136.91;5038081;28;20005;-79
2023/09/10 03:08:13;;;;;;;;;;;;;;;22.86;100.00;98121.22;5041369;28;19957;-79
2023/09/10 03:10:40;;;;;;;;;;;;;;;22.88;100.00;98122.47;5041159;28;19925;-78
2023/09/10 03:13:06;;;;;;;;;;;;;;;22.88;100.00;98127.13;5045489;28;19957;-78
2023/09/10 03:15:32;;;;;;;;;;;;;;;22.86;100.00;98124.75;5059356;28;19925;-78
2023/09/10 03:17:59;;;;;;;;;;;;;;;22.74;100.00;98126.66;5034717;28;19989;-77
2023/09/10 03:20:25;;;;;;;;;;;;;;;22.63;100.00;98123.53;5044169;28;19926;-78
2023/09/10 03:22:57;;;;;;;;;;;;;;;22.43;100.00;98117.00;5038607;28;19926;-78
2023/09/10 03:25:25;;;;;;;;;;;;;;;22.30;100.00;98120.00;5041888;28;19931;-78
2023/09/10 03:27:52;;;;;;;;;;;;;;;22.48;100.00;98124.97;5040193;28;19925;-78
2023/09/10 03:30:18;;;;;;;;;;;;;;;22.43;100.00;98133.34;5038494;28;19925;-78
2023/09/10 03:32:45;;;;;;;;;;;;;;;22.29;100.00;98121.13;5038294;28;19926;-78
2023/09/10 03:35:11;;;;;;;;;;;;;;;22.32;100.00;98125.91;5041869;28;19936;-78
2023/09/10 03:37:38;;;;;;;;;;;;;;;22.40;100.00;98120.41;5040440;28;19925;-78
2023/09/10 03:40:05;;;;;;;;;;;;;;;22.29;100.00;98126.56;5053735;28;19932;-78
2023/09/10 03:42:34;;;;;;;;;;;;;;;22.31;100.00;98129.78;5037156;28;19926;-77
2023/09/10 03:45:00;;;;;;;;;;;;;;;22.21;100.00;98116.56;5041321;28;19925;-77
2023/09/10 03:47:28;;;;;;;;;;;;;;;22.08;100.00;98123.88;5043532;28;19972;-77
2023/09/10 03:49:54;;;;;;;;;;;;;;;22.17;100.00;98118.34;5040578;28;19930;-78
2023/09/10 03:52:21;;;;;;;;;;;;;;;22.29;100.00;98113.75;5041960;28;19971;-78
2023/09/10 03:54:48;;;;;;;;;;;;;;;22.35;100.00;98117.88;5040580;28;19925;-78
2023/09/10 03:57:14;;;;;;;;;;;;;;;22.48;100.00;98113.28;5038600;28;19925;-78
2023/09/10 03:59:42;;;;;;;;;;;;;;;22.49;100.00;98123.84;5038437;28;19948;-78
2023/09/10 04:02:09;;;;;;;;;;;;;;;22.53;100.00;98115.78;5041129;28;19992;-78
2023/09/10 04:04:37;;;;;;;;;;;;;;;22.51;100.00;98110.69;5041596;28;19932;-78
2023/09/10 04:07:03;;;;;;;;;;;;;;;22.54;100.00;98112.72;5040589;28;19926;-77
2023/09/10 04:09:30;;;;;;;;;;;;;;;22.53;100.00;98127.47;5040097;28;19936;-77
2023/09/10 04:11:57;;;;;;;;;;;;;;;22.53;100.00;98104.88;5041925;28;19925;-78
2023/09/10 04:14:24;;;;;;;;;;;;;;;22.53;100.00;98107.59;5042421;28;19932;-78
2023/09/10 04:16:51;;;;;;;;;;;;;;;22.45;100.00;98108.50;5036622;28;19963;-78
2023/09/10 04:19:28;;;;;;;;;;;;;;;22.29;100.00;98116.50;5054052;28;19972;-78
2023/09/10 04:21:55;;;;;;;;;;;;;;;22.25;100.00;98107.38;5040601;28;19926;-78
2023/09/10 04:24:22;;;;;;;;;;;;;;;22.26;100.00;98122.59;5056930;28;19925;-78
2023/09/10 04:26:48;;;;;;;;;;;;;;;22.24;100.00;98108.53;5038859;28;19963;-78
2023/09/10 04:29:14;;;;;;;;;;;;;;;22.06;100.00;98117.97;5037983;28;20422;-78
2023/09/10 04:31:41;;;;;;;;;;;;;;;21.92;100.00;98122.88;5037944;28;19926;-77
2023/09/10 04:34:09;;;;;;;;;;;;;;;22.00;100.00;98127.47;5040972;28;19991;-78
2023/09/10 04:36:35;;;;;;;;;;;;;;;22.09;100.00;98130.91;5041098;28;19925;-78
2023/09/10 04:39:07;;;;;;;;;;;;;;;22.10;100.00;98134.44;5036688;28;19921;-78
2023/09/10 04:41:34;;;;;;;;;;;;;;;22.06;100.00;98134.31;5037458;28;19922;-78
2023/09/10 04:44:03;;;;;;;;;;;;;;;21.82;100.00;98134.09;5040304;28;19956;-78
2023/09/10 04:46:30;;;;;;;;;;;;;;;21.89;100.00;98137.13;5049820;28;19936;-78
2023/09/10 04:48:57;;;;;;;;;;;;;;;22.05;100.00;98149.00;5041246;28;19928;-78
2023/09/10 04:51:24;;;;;;;;;;;;;;;22.18;100.00;98142.53;5041699;28;19980;-78
2023/09/10 04:53:51;;;;;;;;;;;;;;;22.23;100.00;98150.47;5039746;28;19937;-78
2023/09/10 04:56:17;;;;;;;;;;;;;;;22.22;100.00;98151.59;5037187;28;19925;-79
2023/09/10 04:58:46;;;;;;;;;;;;;;;22.10;100.00;98151.53;5036783;28;19929;-79
2023/09/10 05:01:15;;;;;;;;;;;;;;;22.10;100.00;98156.97;5039805;28;19925;-79
2023/09/10 05:03:42;;;;;;;;;;;;;;;22.10;100.00;98159.69;5039520;28;19933;-79
2023/09/10 05:06:09;;;;;;;;;;;;;;;22.02;100.00;98161.38;5036801;28;19932;-79
2023/09/10 05:08:36;;;;;;;;;;;;;;;21.86;100.00;98160.31;5036736;28;19925;-79
2023/09/10 05:11:03;;;;;;;;;;;;;;;21.73;100.00;98174.94;5040099;28;19964;-79
2023/09/10 05:13:30;;;;;;;;;;;;;;;21.78;100.00;98165.81;5041081;28;19968;-78
2023/09/10 05:15:57;;;;;;;;;;;;;;;21.58;100.00;98172.00;5037737;28;19925;-79
2023/09/10 05:18:23;;;;;;;;;;;;;;;21.67;100.00;98165.38;5050983;28;19932;-79
2023/09/10 05:20:50;;;;;;;;;;;;;;;21.61;100.00;98166.69;5038487;28;20016;-79
2023/09/10 05:23:16;;;;;;;;;;;;;;;21.61;100.00;98171.34;5036462;28;19984;-79
2023/09/10 05:25:44;;;;;;;;;;;;;;;21.67;100.00;98175.47;5036778;28;19933;-78
2023/09/10 05:28:10;;;;;;;;;;;;;;;21.92;100.00;98172.63;5040577;28;19925;-79
2023/09/10 05:30:37;;;;;;;;;;;;;;;22.01;100.00;98178.00;5043573;28;19952;-79
2023/09/10 05:33:03;;;;;;;;;;;;;;;21.97;100.00;98172.41;5040029;28;19926;-78
2023/09/10 05:35:30;;;;;;;;;;;;;;;21.89;100.00;98177.91;5039841;28;19929;-78
2023/09/10 05:37:56;;;;;;;;;;;;;;;21.94;100.00;98183.19;5042973;28;19953;-78
2023/09/10 05:40:23;;;;;;;;;;;;;;;21.97;100.00;98177.84;5044242;28;19921;-78
2023/09/10 05:42:50;;;;;;;;;;;;;;;22.05;100.00;98176.22;5042953;28;19925;-78
2023/09/10 05:45:17;;;;;;;;;;;;;;;22.12;100.00;98176.50;5042121;28;19929;-78
2023/09/10 05:47:43;;;;;;;;;;;;;;;22.30;100.00;98177.94;5043720;28;19925;-78
2023/09/10 05:50:10;;;;;;;;;;;;;;;22.26;100.00;98174.28;5044074;28;19964;-78
2023/09/10 05:52:36;;;;;;;;;;;;;;;22.27;100.00;98178.63;5043036;28;19925;-78
2023/09/10 05:55:02;;;;;;;;;;;;;;;22.58;100.00;98173.53;5041315;28;19932;-78
2023/09/10 05:57:29;;;;;;;;;;;;;;;22.62;100.00;98179.13;5040706;28;20016;-79
2023/09/10 05:59:57;;;;;;;;;;;;;;;22.74;100.00;98179.19;5044959;28;19932;-78
2023/09/10 06:02:23;;;;;;;;;;;;;;;22.77;100.00;98175.78;5045041;28;19952;-79
2023/09/10 06:04:49;;;;;;;;;;;;;;;22.97;100.00;98183.09;5043561;28;19936;-78
2023/09/10 06:07:16;;;;;;;;;;;;;;;23.13;100.00;98183.25;5046030;28;20379;-78
2023/09/10 06:09:42;;;;;;;;;;;;;;;23.39;100.00;98181.06;5053202;28;19925;-79
2023/09/10 06:12:08;;;;;;;;;;;;;;;23.34;100.00;98186.69;5054394;28;19931;-78
2023/09/10 06:14:35;;;;;;;;;;;;;;;23.58;100.00;98189.44;5052849;28;19964;-78
2023/09/10 06:17:04;;;;;;;;;;;;;;;23.85;100.00;98185.25;5045800;28;19925;-79
2023/09/10 06:19:33;;;;;;;;;;;;;;;23.71;100.00;98187.50;5048869;28;19991;-79
2023/09/10 06:21:59;;;;;;;;;;;;;;;24.03;100.00;98186.56;5051658;28;19998;-78
2023/09/10 06:24:28;;;;;;;;;;;;;;;24.16;100.00;98184.66;5051168;28;19956;-79
2023/09/10 06:26:54;;;;;;;;;;;;;;;24.15;100.00;98183.84;5046364;28;19936;-79
2023/09/10 06:29:21;;;;;;;;;;;;;;;24.27;100.00;98188.47;5047795;28;20582;-79
2023/09/10 06:31:47;;;;;;;;;;;;;;;24.42;100.00;98190.47;5049177;28;19956;-79
2023/09/10 06:34:15;;;;;;;;;;;;;;;24.67;99.76;98183.78;5041739;28;19964;-79
2023/09/10 06:36:41;;;;;;;;;;;;;;;24.85;98.17;98186.25;5049905;28;19991;-79
2023/09/10 06:39:07;;;;;;;;;;;;;;;25.03;96.79;98188.31;5039452;28;19953;-78
2023/09/10 06:41:34;;;;;;;;;;;;;;;25.07;96.54;98180.19;5044310;28;19963;-78
2023/09/10 06:44:00;;;;;;;;;;;;;;;25.13;95.96;98178.78;5053632;28;19971;-78
2023/09/10 06:46:26;;;;;;;;;;;;;;;25.30;95.10;98181.19;5051626;28;19925;-78
2023/09/10 06:49:03;;;;;;;;;;;;;;;25.51;93.55;98181.72;5045907;28;19933;-78
2023/09/10 06:51:32;;;;;;;;;;;;;;;25.56;93.15;98186.16;5044825;28;19925;-78
2023/09/10 06:53:59;;;;;;;;;;;;;;;25.45;93.67;98179.59;5041484;28;19937;-78
2023/09/10 06:56:26;;;;;;;;;;;;;;;25.25;96.26;98184.94;5043638;28;19925;-78
2023/09/10 06:58:52;;;;;;;;;;;;;;;25.44;94.79;98184.25;5043765;28;19952;-78
2023/09/10 07:01:20;;;;;;;;;;;;;;;25.53;94.07;98179.41;5051125;28;20000;-78
2023/09/10 07:03:47;;;;;;;;;;;;;;;25.64;93.50;98188.69;5043376;28;20028;-78
2023/09/10 07:06:13;;;;;;;;;;;;;;;25.65;93.53;98186.75;5051002;28;19925;-78
2023/09/10 07:08:41;;;;;;;;;;;;;;;25.56;94.50;98175.97;5053610;28;19959;-78
2023/09/10 07:11:07;;;;;;;;;;;;;;;25.53;95.67;98182.16;5037395;28;19948;-78
2023/09/10 07:13:34;;;;;;;;;;;;;;;25.45;96.21;98182.31;5047877;28;20264;-79
2023/09/10 07:16:00;;;;;;;;;;;;;;;25.39;97.12;98184.53;5038981;28;19937;-79
2023/09/10 07:18:32;;;;;;;;;;;;;;;25.31;98.00;98188.25;5047250;28;19972;-79
2023/09/10 07:20:59;;;;;;;;;;;;;;;25.25;99.54;98192.38;5056274;28;19933;-79
2023/09/10 07:23:25;;;;;;;;;;;;;;;25.03;100.00;98192.97;5054096;28;19925;-79
2023/09/10 07:26:08;;;;;;;;;;;;;;;24.70;100.00;98194.00;5047238;28;19947;-79
2023/09/10 07:28:34;;;;;;;;;;;;;;;24.49;100.00;98195.34;5046297;28;20020;-78
2023/09/10 07:31:00;;;;;;;;;;;;;;;24.32;100.00;98192.91;5047015;28;19952;-78
2023/09/10 07:33:27;;;;;;;;;;;;;;;23.94;100.00;98190.56;5042922;28;19925;-77
2023/09/10 07:35:53;;;;;;;;;;;;;;;23.82;100.00;98187.84;5040462;28;19926;-77
2023/09/10 07:38:19;;;;;;;;;;;;;;;23.61;100.00;98188.75;5043068;28;19960;-77
2023/09/10 07:40:46;;;;;;;;;;;;;;;23.69;100.00;98183.53;5056526;28;20005;-77
2023/09/10 07:43:13;;;;;;;;;;;;;;;23.39;100.00;98191.94;5048517;28;19941;-78
2023/09/10 07:45:40;;;;;;;;;;;;;;;22.99;100.00;98185.50;5048392;28;19967;-78
2023/09/10 07:48:07;;;;;;;;;;;;;;;22.79;100.00;98187.13;5041686;28;19925;-77
2023/09/10 07:50:33;;;;;;;;;;;;;;;22.69;100.00;98190.28;5056772;28;19948;-77
2023/09/10 07:53:00;;;;;;;;;;;;;;;22.43;100.00;98190.50;5046575;28;19921;-77
2023/09/10 07:55:26;;;;;;;;;;;;;;;22.54;100.00;98188.94;5057749;28;19975;-78
2023/09/10 07:57:53;;;;;;;;;;;;;;;22.69;100.00;98189.47;5048853;28;19921;-78
2023/09/10 08:00:20;;;;;;;;;;;;;;;22.95;100.00;98181.84;5047178;28;19933;-78
2023/09/10 08:02:48;;;;;;;;;;;;;;;23.11;100.00;98185.53;5046883;28;19953;-77
2023/09/10 08:05:14;;;;;;;;;;;;;;;23.05;100.00;98187.66;5043889;28;19921;-78
2023/09/10 08:07:41;;;;;;;;;;;;;;;23.01;100.00;98180.50;5044222;28;19925;-77
2023/09/10 08:10:07;;;;;;;;;;;;;;;22.98;100.00;98181.16;5040217;28;19971;-77
2023/09/10 08:12:34;;;;;;;;;;;;;;;23.18;100.00;98187.69;5050662;28;19960;-78
2023/09/10 08:15:00;;;;;;;;;;;;;;;23.17;100.00;98184.16;5047585;28;19929;-77
2023/09/10 08:17:28;;;;;;;;;;;;;;;23.20;100.00;98178.03;5043007;28;19953;-77
2023/09/10 08:19:54;;;;;;;;;;;;;;;23.32;100.00;98174.53;5044967;28;19956;-77
2023/09/10 08:22:21;;;;;;;;;;;;;;;23.42;100.00;98180.38;5037131;28;19926;-78
2023/09/10 08:24:48;;;;;;;;;;;;;;;23.50;100.00;98184.91;5038123;28;19930;-78
2023/09/10 08:27:15;;;;;;;;;;;;;;;23.46;100.00;98175.81;5048552;28;19952;-77
2023/09/10 08:29:41;;;;;;;;;;;;;;;23.31;100.00;98183.81;5048891;28;19960;-77
2023/09/10 08:32:07;;;;;;;;;;;;;;;23.25;100.00;98175.09;5043189;28;19925;-78
2023/09/10 08:34:35;;;;;;;;;;;;;;;23.22;100.00;98173.03;5043880;28;19947;-78
2023/09/10 08:37:05;;;;;;;;;;;;;;;23.27;100.00;98172.03;5045266;28;19932;-78
2023/09/10 08:39:32;;;;;;;;;;;;;;;23.12;100.00;98185.16;5060744;28;19968;-78
2023/09/10 08:42:01;;;;;;;;;;;;;;;23.07;100.00;98182.66;5039561;28;19933;-79
2023/09/10 08:44:29;;;;;;;;;;;;;;;23.01;100.00;98180.50;5038212;28;19937;-78
2023/09/10 08:46:56;;;;;;;;;;;;;;;23.10;100.00;98183.91;5046871;28;19932;-79
2023/09/10 08:49:23;;;;;;;;;;;;;;;23.15;100.00;98182.91;5037099;28;19992;-78
2023/09/10 08:51:51;;;;;;;;;;;;;;;23.23;100.00;98182.00;5038981;28;19945;-79
2023/09/10 08:54:18;;;;;;;;;;;;;;;23.30;100.00;98176.81;5042135;28;19932;-79
2023/09/10 08:56:45;;;;;;;;;;;;;;;23.33;100.00;98185.09;5039456;28;19929;-79
2023/09/10 08:59:11;;;;;;;;;;;;;;;23.44;100.00;98180.81;5046097;28;19925;-79
2023/09/10 09:01:38;;;;;;;;;;;;;;;23.47;100.00;98179.34;5042537;28;19937;-78
2023/09/10 09:04:04;;;;;;;;;;;;;;;23.49;100.00;98175.13;5050952;28;19933;-78
2023/09/10 09:06:32;;;;;;;;;;;;;;;23.58;100.00;98170.34;5051237;28;19972;-78
2023/09/10 09:09:05;;;;;;;;;;;;;;;23.62;100.00;98168.53;5048826;28;19934;-78
2023/09/10 09:11:35;;;;;;;;;;;;;;;23.76;100.00;98173.66;5041138;28;20055;-78
2023/09/10 09:14:01;;;;;;;;;;;;;;;23.82;100.00;98176.94;5043413;28;19989;-78
2023/09/10 09:16:28;;;;;;;;;;;;;;;23.81;100.00;98180.78;5053244;28;19921;-78
2023/09/10 09:18:54;;;;;;;;;;;;;;;23.84;100.00;98174.66;5042533;28;19925;-78
2023/09/10 09:21:22;;;;;;;;;;;;;;;23.96;100.00;98174.63;5041634;28;19925;-79
2023/09/10 09:23:50;;;;;;;;;;;;;;;23.92;100.00;98174.53;5044581;28;19929;-79
2023/09/10 09:26:19;;;;;;;;;;;;;;;23.94;100.00;98179.66;5044717;28;19960;-78
2023/09/10 09:28:45;;;;;;;;;;;;;;;24.04;100.00;98180.00;5043535;28;19925;-78
2023/09/10 09:31:12;;;;;;;;;;;;;;;24.32;100.00;98174.59;5040987;28;19926;-77
2023/09/10 09:33:38;;;;;;;;;;;;;;;24.48;100.00;98178.16;5039338;28;19956;-77
2023/09/10 09:36:08;;;;;;;;;;;;;;;24.96;100.00;98171.72;5042600;28;19936;-77
2023/09/10 09:38:35;;;;;;;;;;;;;;;24.97;100.00;98161.59;5042474;28;19932;-78
2023/09/10 09:41:03;;;;;;;;;;;;;;;24.94;100.00;98165.03;5039971;28;19952;-79
2023/09/10 09:43:32;;;;;;;;;;;;;;;25.35;100.00;98161.75;5040752;28;19921;-80
2023/09/10 09:45:58;;;;;;;;;;;;;;;25.63;100.00;98157.00;5048002;28;19929;-78
2023/09/10 09:48:25;;;;;;;;;;;;;;;25.88;100.00;98157.56;5047977;28;19925;-78
2023/09/10 09:50:51;;;;;;;;;;;;;;;25.83;100.00;98163.34;5042526;28;19926;-79
2023/09/10 09:53:18;;;;;;;;;;;;;;;25.91;100.00;98156.06;5041346;28;19926;-79
2023/09/10 09:55:45;;;;;;;;;;;;;;;25.80;100.00;98158.56;5041384;28;19976;-78
2023/09/10 09:58:11;;;;;;;;;;;;;;;26.26;100.00;98151.41;5043252;28;19975;-79
2023/09/10 10:00:39;;;;;;;;;;;;;;;26.58;100.00;98152.84;5044250;28;19926;-79
2023/09/10 10:03:06;;;;;;;;;;;;;;;26.62;100.00;98161.91;5032552;28;19932;-78
2023/09/10 10:05:32;;;;;;;;;;;;;;;26.52;100.00;98148.78;5031365;28;19976;-78
2023/09/10 10:07:59;;;;;;;;;;;;;;;26.62;100.00;98152.88;5032765;28;19933;-79
2023/09/10 10:10:25;;;;;;;;;;;;;;;26.77;100.00;98150.06;5039305;28;19929;-79
2023/09/10 10:12:52;;;;;;;;;;;;;;;26.61;100.00;98149.38;5032352;28;19922;-78
2023/09/10 10:15:19;;;;;;;;;;;;;;;26.35;100.00;98143.75;5033483;28;19921;-79
2023/09/10 10:17:47;;;;;;;;;;;;;;;26.39;100.00;98150.09;5054378;28;19955;-79
2023/09/10 10:20:14;;;;;;;;;;;;;;;26.34;100.00;98136.69;5045585;28;19925;-78
2023/09/10 10:22:41;;;;;;;;;;;;;;;26.71;100.00;98137.00;5040658;28;19926;-78
2023/09/10 10:25:08;;;;;;;;;;;;;;;26.81;100.00;98126.28;5043911;28;19921;-79
2023/09/10 10:27:34;;;;;;;;;;;;;;;26.99;100.00;98123.84;5043868;28;19929;-78
2023/09/10 10:30:01;;;;;;;;;;;;;;;26.95;100.00;98116.75;5041082;28;19930;-79
2023/09/10 10:32:30;;;;;;;;;;;;;;;26.80;100.00;98124.69;5039217;28;19926;-79
2023/09/10 10:35:00;;;;;;;;;;;;;;;26.70;100.00;98125.28;5041686;28;19956;-79
2023/09/10 10:37:31;;;;;;;;;;;;;;;26.61;100.00;98123.94;5042480;28;19925;-79
2023/09/10 10:40:10;;;;;;;;;;;;;;;26.73;100.00;98118.28;5040187;28;19925;-80
2023/09/10 10:42:38;;;;;;;;;;;;;;;26.74;100.00;98112.41;5038944;28;20005;-79
2023/09/10 10:45:06;;;;;;;;;;;;;;;26.73;100.00;98110.84;5042381;28;19936;-79
2023/09/10 10:47:35;;;;;;;;;;;;;;;27.11;100.00;98109.19;5044714;28;19952;-80
2023/09/10 10:50:06;;;;;;;;;;;;;;;27.65;100.00;98109.69;5040205;28;19925;-80
2023/09/10 10:52:33;;;;;;;;;;;;;;;27.49;100.00;98113.72;5042395;28;19925;-79
2023/09/10 10:54:59;;;;;;;;;;;;;;;27.68;100.00;98114.44;5041015;28;19960;-79
2023/09/10 10:57:27;;;;;;;;;;;;;;;27.99;100.00;98112.50;5040079;28;19925;-80
2023/09/10 10:59:54;;;;;;;;;;;;;;;27.94;100.00;98112.81;5041297;28;19988;-80
2023/09/10 11:02:22;;;;;;;;;;;;;;;27.85;100.00;98111.13;5046388;28;19972;-80
2023/09/10 11:04:55;;;;;;;;;;;;;;;28.04;100.00;98109.44;5044656;28;19926;-79
2023/09/10 11:07:23;;;;;;;;;;;;;;;28.01;100.00;98108.19;5043475;28;20222;-79
2023/09/10 11:09:49;;;;;;;;;;;;;;;28.03;100.00;98110.59;5043137;28;19926;-78
2023/09/10 11:12:16;;;;;;;;;;;;;;;28.04;100.00;98106.69;5048619;28;19945;-79
2023/09/10 11:15:04;;;;;;;;;;;;;;;28.06;100.00;98105.19;5048697;28;19948;-79
2023/09/10 11:17:44;;;;;;;;;;;;;;;28.05;100.00;98100.03;5044358;28;19921;-80
2023/09/10 11:20:10;;;;;;;;;;;;;;;27.91;100.00;98108.06;5050100;28;19925;-79
2023/09/10 11:23:06;;;;;;;;;;;;;;;27.89;100.00;98095.50;5032900;28;19933;-80
2023/09/10 11:25:33;;;;;;;;;;;;;;;27.99;100.00;98099.56;5035997;28;19932;-79
2023/09/10 11:28:00;;;;;;;;;;;;;;;28.06;100.00;98091.44;5033607;28;19988;-80
2023/09/10 11:30:26;;;;;;;;;;;;;;;28.13;100.00;98088.78;5030284;28;19922;-80
2023/09/10 11:33:27;;;;;;;;;;;;;;;28.13;100.00;98085.25;5031453;28;19925;-80
2023/09/10 11:35:53;;;;;;;;;;;;;;;28.13;100.00;98083.28;5038981;28;19984;-80
2023/09/10 11:38:22;;;;;;;;;;;;;;;28.21;100.00;98090.47;5039951;28;19956;-80
2023/09/10 11:40:48;;;;;;;;;;;;;;;28.12;100.00;98086.41;5040473;28;19925;-81
2023/09/10 11:43:16;;;;;;;;;;;;;;;28.23;100.00;98087.31;5042214;28;19929;-80
2023/09/10 11:45:42;;;;;;;;;;;;;;;28.34;100.00;98085.50;5040635;28;20391;-79
2023/09/10 11:48:09;;;;;;;;;;;;;;;28.43;98.72;98083.25;5033209;28;19925;-79
2023/09/10 11:50:35;;;;;;;;;;;;;;;28.28;98.69;98081.50;5050348;28;19929;-79
2023/09/10 11:53:01;;;;;;;;;;;;;;;28.23;99.42;98076.34;5046389;28;19940;-79
2023/09/10 11:55:30;;;;;;;;;;;;;;;28.21;99.24;98078.69;5058797;28;19959;-80
2023/09/10 11:57:56;;;;;;;;;;;;;;;28.19;100.00;98075.53;5040177;28;19925;-80
2023/09/10 12:00:23;;;;;;;;;;;;;;;28.22;100.00;98080.28;5038504;28;19926;-79
2023/09/10 12:02:49;;;;;;;;;;;;;;;28.21;100.00;98076.72;5040342;28;19956;-79
2023/09/10 12:05:16;;;;;;;;;;;;;;;28.15;99.86;98071.94;5041606;28;19932;-79
2023/09/10 12:07:44;;;;;;;;;;;;;;;28.12;99.81;98086.41;5064927;28;19921;-79
2023/09/10 12:10:12;;;;;;;;;;;;;;;28.14;98.52;98073.09;5046108;28;19931;-79
2023/09/10 12:12:42;;;;;;;;;;;;;;;28.08;99.71;98064.41;5043451;28;19952;-80
2023/09/10 12:15:09;;;;;;;;;;;;;;;28.18;98.44;98076.69;5057036;28;19981;-79
2023/09/10 12:17:35;;;;;;;;;;;;;;;28.21;98.08;98068.50;5042210;28;20377;-79
2023/09/10 12:20:02;;;;;;;;;;;;;;;28.19;99.29;98065.34;5040927;28;19924;-79
2023/09/10 12:22:34;;;;;;;;;;;;;;;28.34;97.49;98069.03;5040844;28;19925;-79
2023/09/10 12:25:01;;;;;;;;;;;;;;;28.35;96.49;98065.09;5040303;28;20004;-80
2023/09/10 12:27:41;;;;;;;;;;;;;;;28.35;96.32;98065.09;5038924;28;19932;-80
2023/09/10 12:30:08;;;;;;;;;;;;;;;28.25;97.77;98060.28;5037475;28;19926;-80
2023/09/10 12:32:37;;;;;;;;;;;;;;;28.31;96.35;98053.28;5054029;28;19929;-80
2023/09/10 12:35:04;;;;;;;;;;;;;;;28.46;93.81;98046.00;5042123;28;19925;-80
2023/09/10 12:37:31;;;;;;;;;;;;;;;28.49;93.37;98051.53;5042738;28;19952;-80
2023/09/10 12:39:58;;;;;;;;;;;;;;;28.45;95.14;98045.19;5039875;28;19929;-79
2023/09/10 12:42:24;;;;;;;;;;;;;;;28.49;94.67;98047.97;5039148;28;19957;-79